sensor_id;sensor_type;location;lat;lon;timestamp;P1;durP1;ratioP1;P2;durP2;ratioP2
60014;SDS011;45867;52.480;6.056;2023-08-20T00:00:05;13.50;;;4.00;;
60014;SDS011;45867;52.480;6.056;2023-08-20T00:02:32;8.73;;;3.75;;
60014;SDS011;45867;52.480;6.056;2023-08-20T00:05:02;17.88;;;4.45;;
60014;SDS011;45867;52.480;6.056;2023-08-20T00:07:30;7.70;;;3.65;;
60014;SDS011;45867;52.480;6.056;2023-08-20T00:09:57;15.50;;;4.57;;
60014;SDS011;45867;52.480;6.056;2023-08-20T00:12:24;11.52;;;3.95;;
60014;SDS011;45867;52.480;6.056;2023-08-20T00:14:52;7.35;;;3.67;;
60014;SDS011;45867;52.480;6.056;2023-08-20T00:17:22;13.35;;;3.90;;
60014;SDS011;45867;52.480;6.056;2023-08-20T00:19:49;10.63;;;3.78;;
60014;SDS011;45867;52.480;6.056;2023-08-20T00:22:16;10.95;;;4.00;;
60014;SDS011;45867;52.480;6.056;2023-08-20T00:24:43;7.95;;;3.65;;
60014;SDS011;45867;52.480;6.056;2023-08-20T00:27:10;9.80;;;3.97;;
60014;SDS011;45867;52.480;6.056;2023-08-20T00:29:36;12.93;;;4.32;;
60014;SDS011;45867;52.480;6.056;2023-08-20T00:32:03;10.05;;;3.75;;
60014;SDS011;45867;52.480;6.056;2023-08-20T00:34:29;7.80;;;3.60;;
60014;SDS011;45867;52.480;6.056;2023-08-20T00:36:56;7.43;;;3.60;;
60014;SDS011;45867;52.480;6.056;2023-08-20T00:39:22;9.40;;;3.88;;
60014;SDS011;45867;52.480;6.056;2023-08-20T00:41:49;12.73;;;4.30;;
60014;SDS011;45867;52.480;6.056;2023-08-20T00:44:15;10.48;;;4.45;;
60014;SDS011;45867;52.480;6.056;2023-08-20T00:46:42;14.65;;;4.57;;
60014;SDS011;45867;52.480;6.056;2023-08-20T00:49:08;12.10;;;4.65;;
60014;SDS011;45867;52.480;6.056;2023-08-20T00:51:35;9.38;;;4.32;;
60014;SDS011;45867;52.480;6.056;2023-08-20T00:54:02;11.73;;;4.88;;
60014;SDS011;45867;52.480;6.056;2023-08-20T00:56:29;11.90;;;5.22;;
60014;SDS011;45867;52.480;6.056;2023-08-20T00:58:55;17.55;;;4.80;;
60014;SDS011;45867;52.480;6.056;2023-08-20T01:01:22;10.80;;;4.80;;
60014;SDS011;45867;52.480;6.056;2023-08-20T01:03:49;14.45;;;4.78;;
60014;SDS011;45867;52.480;6.056;2023-08-20T01:09:10;14.82;;;5.40;;
60014;SDS011;45867;52.480;6.056;2023-08-20T01:11:59;10.45;;;5.13;;
60014;SDS011;45867;52.480;6.056;2023-08-20T01:14:26;11.82;;;4.68;;
60014;SDS011;45867;52.480;6.056;2023-08-20T01:16:53;10.40;;;5.35;;
60014;SDS011;45867;52.480;6.056;2023-08-20T01:19:20;12.20;;;4.88;;
60014;SDS011;45867;52.480;6.056;2023-08-20T01:30:29;10.63;;;4.60;;
60014;SDS011;45867;52.480;6.056;2023-08-20T01:32:57;12.75;;;4.20;;
60014;SDS011;45867;52.480;6.056;2023-08-20T01:35:24;13.27;;;4.15;;
60014;SDS011;45867;52.480;6.056;2023-08-20T01:37:51;11.43;;;4.07;;
60014;SDS011;45867;52.480;6.056;2023-08-20T01:40:18;9.25;;;3.50;;
60014;SDS011;45867;52.480;6.056;2023-08-20T01:42:44;11.75;;;4.10;;
60014;SDS011;45867;52.480;6.056;2023-08-20T01:45:11;10.93;;;3.50;;
60014;SDS011;45867;52.480;6.056;2023-08-20T01:47:37;10.90;;;3.42;;
60014;SDS011;45867;52.480;6.056;2023-08-20T01:50:04;11.63;;;3.25;;
60014;SDS011;45867;52.480;6.056;2023-08-20T01:52:33;6.28;;;2.92;;
60014;SDS011;45867;52.480;6.056;2023-08-20T01:54:59;9.57;;;3.08;;
60014;SDS011;45867;52.480;6.056;2023-08-20T01:57:26;11.65;;;2.70;;
60014;SDS011;45867;52.480;6.056;2023-08-20T01:59:52;8.18;;;3.05;;
60014;SDS011;45867;52.480;6.056;2023-08-20T02:02:19;11.93;;;3.00;;
60014;SDS011;45867;52.480;6.056;2023-08-20T02:04:45;10.90;;;3.10;;
60014;SDS011;45867;52.480;6.056;2023-08-20T02:07:12;12.75;;;3.00;;
60014;SDS011;45867;52.480;6.056;2023-08-20T02:09:38;14.75;;;3.22;;
60014;SDS011;45867;52.480;6.056;2023-08-20T02:12:05;10.43;;;3.10;;
60014;SDS011;45867;52.480;6.056;2023-08-20T02:14:31;6.68;;;2.80;;
60014;SDS011;45867;52.480;6.056;2023-08-20T02:16:58;11.98;;;3.65;;
60014;SDS011;45867;52.480;6.056;2023-08-20T02:19:24;12.35;;;3.25;;
60014;SDS011;45867;52.480;6.056;2023-08-20T02:21:51;13.18;;;3.25;;
60014;SDS011;45867;52.480;6.056;2023-08-20T02:24:19;12.70;;;2.67;;
60014;SDS011;45867;52.480;6.056;2023-08-20T02:26:45;9.93;;;2.70;;
60014;SDS011;45867;52.480;6.056;2023-08-20T02:29:12;13.02;;;2.92;;
60014;SDS011;45867;52.480;6.056;2023-08-20T02:31:38;11.02;;;2.85;;
60014;SDS011;45867;52.480;6.056;2023-08-20T02:34:05;12.50;;;2.70;;
60014;SDS011;45867;52.480;6.056;2023-08-20T02:36:31;8.93;;;2.92;;
60014;SDS011;45867;52.480;6.056;2023-08-20T02:38:58;11.95;;;3.03;;
60014;SDS011;45867;52.480;6.056;2023-08-20T02:41:24;11.57;;;2.92;;
60014;SDS011;45867;52.480;6.056;2023-08-20T02:43:51;9.23;;;2.88;;
60014;SDS011;45867;52.480;6.056;2023-08-20T02:46:17;11.02;;;3.13;;
60014;SDS011;45867;52.480;6.056;2023-08-20T02:48:44;11.82;;;3.00;;
60014;SDS011;45867;52.480;6.056;2023-08-20T02:51:10;16.80;;;3.30;;
60014;SDS011;45867;52.480;6.056;2023-08-20T02:53:36;12.32;;;3.10;;
60014;SDS011;45867;52.480;6.056;2023-08-20T02:56:03;11.50;;;2.60;;
60014;SDS011;45867;52.480;6.056;2023-08-20T02:58:30;11.02;;;3.15;;
60014;SDS011;45867;52.480;6.056;2023-08-20T03:00:56;12.85;;;3.35;;
60014;SDS011;45867;52.480;6.056;2023-08-20T03:03:22;10.30;;;2.67;;
60014;SDS011;45867;52.480;6.056;2023-08-20T03:05:50;8.65;;;2.58;;
60014;SDS011;45867;52.480;6.056;2023-08-20T03:08:16;10.43;;;2.45;;
60014;SDS011;45867;52.480;6.056;2023-08-20T03:10:42;11.35;;;2.92;;
60014;SDS011;45867;52.480;6.056;2023-08-20T03:13:09;14.00;;;2.83;;
60014;SDS011;45867;52.480;6.056;2023-08-20T03:15:35;9.70;;;2.75;;
60014;SDS011;45867;52.480;6.056;2023-08-20T03:18:02;13.32;;;2.92;;
60014;SDS011;45867;52.480;6.056;2023-08-20T03:20:29;8.82;;;2.50;;
60014;SDS011;45867;52.480;6.056;2023-08-20T03:22:55;10.05;;;2.80;;
60014;SDS011;45867;52.480;6.056;2023-08-20T03:25:21;10.02;;;2.95;;
60014;SDS011;45867;52.480;6.056;2023-08-20T03:27:49;10.43;;;2.92;;
60014;SDS011;45867;52.480;6.056;2023-08-20T03:30:18;8.93;;;3.00;;
60014;SDS011;45867;52.480;6.056;2023-08-20T03:32:44;7.40;;;3.03;;
60014;SDS011;45867;52.480;6.056;2023-08-20T03:35:11;12.25;;;3.33;;
60014;SDS011;45867;52.480;6.056;2023-08-20T03:37:37;10.05;;;3.65;;
60014;SDS011;45867;52.480;6.056;2023-08-20T03:40:04;19.05;;;3.80;;
60014;SDS011;45867;52.480;6.056;2023-08-20T03:42:34;10.90;;;3.80;;
60014;SDS011;45867;52.480;6.056;2023-08-20T03:45:01;12.50;;;3.30;;
60014;SDS011;45867;52.480;6.056;2023-08-20T03:47:28;11.95;;;3.05;;
60014;SDS011;45867;52.480;6.056;2023-08-20T03:49:54;12.70;;;3.05;;
60014;SDS011;45867;52.480;6.056;2023-08-20T03:52:21;9.80;;;3.17;;
60014;SDS011;45867;52.480;6.056;2023-08-20T03:54:47;7.70;;;3.30;;
60014;SDS011;45867;52.480;6.056;2023-08-20T03:57:14;12.60;;;3.20;;
60014;SDS011;45867;52.480;6.056;2023-08-20T03:59:40;12.18;;;3.83;;
60014;SDS011;45867;52.480;6.056;2023-08-20T04:02:07;11.35;;;3.90;;
60014;SDS011;45867;52.480;6.056;2023-08-20T04:04:33;10.65;;;3.55;;
60014;SDS011;45867;52.480;6.056;2023-08-20T04:06:59;10.02;;;3.80;;
60014;SDS011;45867;52.480;6.056;2023-08-20T04:09:26;12.35;;;3.85;;
60014;SDS011;45867;52.480;6.056;2023-08-20T04:11:52;10.52;;;3.45;;
60014;SDS011;45867;52.480;6.056;2023-08-20T04:14:19;14.45;;;3.92;;
60014;SDS011;45867;52.480;6.056;2023-08-20T04:16:45;12.30;;;3.08;;
60014;SDS011;45867;52.480;6.056;2023-08-20T04:19:12;10.18;;;3.15;;
60014;SDS011;45867;52.480;6.056;2023-08-20T04:21:41;12.48;;;3.50;;
60014;SDS011;45867;52.480;6.056;2023-08-20T04:24:07;17.27;;;3.35;;
60014;SDS011;45867;52.480;6.056;2023-08-20T04:26:34;11.52;;;3.20;;
60014;SDS011;45867;52.480;6.056;2023-08-20T04:29:00;13.98;;;3.50;;
60014;SDS011;45867;52.480;6.056;2023-08-20T04:31:27;15.82;;;3.65;;
60014;SDS011;45867;52.480;6.056;2023-08-20T04:33:53;12.95;;;3.35;;
60014;SDS011;45867;52.480;6.056;2023-08-20T04:36:20;12.23;;;4.30;;
60014;SDS011;45867;52.480;6.056;2023-08-20T04:38:47;14.30;;;3.72;;
60014;SDS011;45867;52.480;6.056;2023-08-20T04:41:13;12.25;;;3.22;;
60014;SDS011;45867;52.480;6.056;2023-08-20T04:43:40;6.93;;;3.22;;
60014;SDS011;45867;52.480;6.056;2023-08-20T04:46:06;18.80;;;3.70;;
60014;SDS011;45867;52.480;6.056;2023-08-20T04:48:33;8.75;;;3.75;;
60014;SDS011;45867;52.480;6.056;2023-08-20T04:50:59;22.85;;;4.78;;
60014;SDS011;45867;52.480;6.056;2023-08-20T04:53:26;13.25;;;3.92;;
60014;SDS011;45867;52.480;6.056;2023-08-20T04:55:52;13.30;;;4.20;;
60014;SDS011;45867;52.480;6.056;2023-08-20T04:58:19;9.73;;;3.78;;
60014;SDS011;45867;52.480;6.056;2023-08-20T05:00:45;15.75;;;4.13;;
60014;SDS011;45867;52.480;6.056;2023-08-20T05:03:11;9.48;;;3.83;;
60014;SDS011;45867;52.480;6.056;2023-08-20T05:05:38;14.25;;;4.28;;
60014;SDS011;45867;52.480;6.056;2023-08-20T05:08:04;12.00;;;4.10;;
60014;SDS011;45867;52.480;6.056;2023-08-20T05:10:31;20.85;;;4.65;;
60014;SDS011;45867;52.480;6.056;2023-08-20T05:12:58;15.20;;;4.40;;
60014;SDS011;45867;52.480;6.056;2023-08-20T05:15:24;10.93;;;4.03;;
60014;SDS011;45867;52.480;6.056;2023-08-20T05:17:50;12.45;;;4.25;;
60014;SDS011;45867;52.480;6.056;2023-08-20T05:20:18;16.10;;;4.53;;
60014;SDS011;45867;52.480;6.056;2023-08-20T05:22:44;15.20;;;4.70;;
60014;SDS011;45867;52.480;6.056;2023-08-20T05:25:11;13.27;;;4.32;;
60014;SDS011;45867;52.480;6.056;2023-08-20T05:27:37;9.90;;;4.38;;
60014;SDS011;45867;52.480;6.056;2023-08-20T05:30:04;13.68;;;4.95;;
60014;SDS011;45867;52.480;6.056;2023-08-20T05:32:31;17.10;;;5.53;;
60014;SDS011;45867;52.480;6.056;2023-08-20T05:34:58;11.80;;;4.38;;
60014;SDS011;45867;52.480;6.056;2023-08-20T05:37:24;22.83;;;4.78;;
60014;SDS011;45867;52.480;6.056;2023-08-20T05:39:50;12.30;;;3.97;;
60014;SDS011;45867;52.480;6.056;2023-08-20T05:42:17;12.38;;;4.45;;
60014;SDS011;45867;52.480;6.056;2023-08-20T05:44:43;17.65;;;4.20;;
60014;SDS011;45867;52.480;6.056;2023-08-20T05:47:10;18.55;;;5.05;;
60014;SDS011;45867;52.480;6.056;2023-08-20T05:49:36;13.80;;;4.57;;
60014;SDS011;45867;52.480;6.056;2023-08-20T05:52:03;13.90;;;4.47;;
60014;SDS011;45867;52.480;6.056;2023-08-20T05:54:29;20.77;;;4.80;;
60014;SDS011;45867;52.480;6.056;2023-08-20T05:56:57;13.63;;;4.22;;
60014;SDS011;45867;52.480;6.056;2023-08-20T05:59:24;16.23;;;4.55;;
60014;SDS011;45867;52.480;6.056;2023-08-20T06:01:52;14.73;;;4.55;;
60014;SDS011;45867;52.480;6.056;2023-08-20T06:04:19;15.18;;;4.38;;
60014;SDS011;45867;52.480;6.056;2023-08-20T06:06:45;17.95;;;4.00;;
60014;SDS011;45867;52.480;6.056;2023-08-20T06:09:12;15.55;;;4.45;;
60014;SDS011;45867;52.480;6.056;2023-08-20T06:11:38;14.43;;;4.18;;
60014;SDS011;45867;52.480;6.056;2023-08-20T06:14:05;13.02;;;3.85;;
60014;SDS011;45867;52.480;6.056;2023-08-20T06:16:31;14.85;;;4.57;;
60014;SDS011;45867;52.480;6.056;2023-08-20T06:18:58;12.60;;;3.67;;
60014;SDS011;45867;52.480;6.056;2023-08-20T06:21:27;11.35;;;3.67;;
60014;SDS011;45867;52.480;6.056;2023-08-20T06:23:54;11.32;;;3.50;;
60014;SDS011;45867;52.480;6.056;2023-08-20T06:26:20;19.23;;;3.20;;
60014;SDS011;45867;52.480;6.056;2023-08-20T06:28:47;8.15;;;2.92;;
60014;SDS011;45867;52.480;6.056;2023-08-20T06:31:13;7.18;;;2.97;;
60014;SDS011;45867;52.480;6.056;2023-08-20T06:33:40;8.98;;;3.08;;
60014;SDS011;45867;52.480;6.056;2023-08-20T06:36:06;19.55;;;3.20;;
60014;SDS011;45867;52.480;6.056;2023-08-20T06:38:33;16.88;;;3.13;;
60014;SDS011;45867;52.480;6.056;2023-08-20T06:41:02;12.43;;;3.08;;
60014;SDS011;45867;52.480;6.056;2023-08-20T06:43:28;9.65;;;3.03;;
60014;SDS011;45867;52.480;6.056;2023-08-20T06:45:55;8.68;;;2.65;;
60014;SDS011;45867;52.480;6.056;2023-08-20T06:48:21;12.20;;;2.97;;
60014;SDS011;45867;52.480;6.056;2023-08-20T06:50:48;15.73;;;2.97;;
60014;SDS011;45867;52.480;6.056;2023-08-20T06:53:14;11.18;;;2.78;;
60014;SDS011;45867;52.480;6.056;2023-08-20T06:55:41;10.05;;;3.00;;
60014;SDS011;45867;52.480;6.056;2023-08-20T06:58:07;13.05;;;2.67;;
60014;SDS011;45867;52.480;6.056;2023-08-20T07:00:34;9.18;;;2.30;;
60014;SDS011;45867;52.480;6.056;2023-08-20T07:03:03;10.52;;;2.65;;
60014;SDS011;45867;52.480;6.056;2023-08-20T07:05:29;12.02;;;2.83;;
60014;SDS011;45867;52.480;6.056;2023-08-20T07:07:56;15.95;;;3.20;;
60014;SDS011;45867;52.480;6.056;2023-08-20T07:10:22;12.35;;;2.72;;
60014;SDS011;45867;52.480;6.056;2023-08-20T07:12:49;12.70;;;3.00;;
60014;SDS011;45867;52.480;6.056;2023-08-20T07:15:15;12.45;;;3.33;;
60014;SDS011;45867;52.480;6.056;2023-08-20T07:17:42;10.77;;;2.58;;
60014;SDS011;45867;52.480;6.056;2023-08-20T07:20:11;14.60;;;2.67;;
60014;SDS011;45867;52.480;6.056;2023-08-20T07:22:38;8.88;;;2.40;;
60014;SDS011;45867;52.480;6.056;2023-08-20T07:25:04;11.85;;;2.75;;
60014;SDS011;45867;52.480;6.056;2023-08-20T07:27:31;15.82;;;2.97;;
60014;SDS011;45867;52.480;6.056;2023-08-20T07:29:57;16.48;;;2.85;;
60014;SDS011;45867;52.480;6.056;2023-08-20T07:32:26;11.23;;;3.00;;
60014;SDS011;45867;52.480;6.056;2023-08-20T07:35:19;10.95;;;2.88;;
60014;SDS011;45867;52.480;6.056;2023-08-20T07:37:46;15.65;;;3.38;;
60014;SDS011;45867;52.480;6.056;2023-08-20T07:40:13;13.38;;;2.78;;
60014;SDS011;45867;52.480;6.056;2023-08-20T07:42:42;12.98;;;2.60;;
60014;SDS011;45867;52.480;6.056;2023-08-20T07:45:09;12.80;;;2.58;;
60014;SDS011;45867;52.480;6.056;2023-08-20T07:47:36;16.73;;;2.70;;
60014;SDS011;45867;52.480;6.056;2023-08-20T07:50:04;10.00;;;2.65;;
60014;SDS011;45867;52.480;6.056;2023-08-20T07:52:31;10.55;;;2.40;;
60014;SDS011;45867;52.480;6.056;2023-08-20T07:54:58;10.88;;;2.35;;
60014;SDS011;45867;52.480;6.056;2023-08-20T07:57:25;12.25;;;2.85;;
60014;SDS011;45867;52.480;6.056;2023-08-20T07:59:52;10.82;;;2.33;;
60014;SDS011;45867;52.480;6.056;2023-08-20T08:02:18;12.25;;;3.28;;
60014;SDS011;45867;52.480;6.056;2023-08-20T08:04:45;10.63;;;2.50;;
60014;SDS011;45867;52.480;6.056;2023-08-20T08:07:11;12.10;;;2.40;;
60014;SDS011;45867;52.480;6.056;2023-08-20T08:09:38;12.63;;;2.60;;
60014;SDS011;45867;52.480;6.056;2023-08-20T08:12:04;11.77;;;2.70;;
60014;SDS011;45867;52.480;6.056;2023-08-20T08:14:31;9.93;;;2.50;;
60014;SDS011;45867;52.480;6.056;2023-08-20T08:16:57;9.43;;;2.20;;
60014;SDS011;45867;52.480;6.056;2023-08-20T08:19:24;11.07;;;2.38;;
60014;SDS011;45867;52.480;6.056;2023-08-20T08:21:50;12.32;;;2.72;;
60014;SDS011;45867;52.480;6.056;2023-08-20T08:24:17;11.95;;;3.22;;
60014;SDS011;45867;52.480;6.056;2023-08-20T08:26:43;10.57;;;2.40;;
60014;SDS011;45867;52.480;6.056;2023-08-20T08:29:09;8.60;;;2.20;;
60014;SDS011;45867;52.480;6.056;2023-08-20T08:31:36;5.95;;;1.88;;
60014;SDS011;45867;52.480;6.056;2023-08-20T08:34:42;6.68;;;1.88;;
60014;SDS011;45867;52.480;6.056;2023-08-20T08:45:39;5.50;;;1.70;;
60014;SDS011;45867;52.480;6.056;2023-08-20T08:55:17;8.38;;;2.50;;
60014;SDS011;45867;52.480;6.056;2023-08-20T09:08:38;7.88;;;2.38;;
60014;SDS011;45867;52.480;6.056;2023-08-20T09:25:33;9.75;;;2.30;;
60014;SDS011;45867;52.480;6.056;2023-08-20T09:28:49;6.70;;;2.47;;
60014;SDS011;45867;52.480;6.056;2023-08-20T09:31:16;11.23;;;2.35;;
60014;SDS011;45867;52.480;6.056;2023-08-20T09:33:53;10.43;;;2.20;;
60014;SDS011;45867;52.480;6.056;2023-08-20T09:36:29;11.88;;;2.33;;
60014;SDS011;45867;52.480;6.056;2023-08-20T09:38:57;7.05;;;2.08;;
60014;SDS011;45867;52.480;6.056;2023-08-20T09:41:24;10.35;;;2.63;;
60014;SDS011;45867;52.480;6.056;2023-08-20T09:44:00;6.53;;;2.33;;
60014;SDS011;45867;52.480;6.056;2023-08-20T09:46:31;7.05;;;1.95;;
60014;SDS011;45867;52.480;6.056;2023-08-20T09:48:58;9.23;;;2.15;;
60014;SDS011;45867;52.480;6.056;2023-08-20T09:51:26;7.85;;;2.58;;
60014;SDS011;45867;52.480;6.056;2023-08-20T09:56:38;8.30;;;2.35;;
60014;SDS011;45867;52.480;6.056;2023-08-20T09:59:05;8.20;;;1.95;;
60014;SDS011;45867;52.480;6.056;2023-08-20T10:01:33;9.23;;;2.10;;
60014;SDS011;45867;52.480;6.056;2023-08-20T10:04:01;8.45;;;2.00;;
60014;SDS011;45867;52.480;6.056;2023-08-20T10:06:28;6.88;;;2.10;;
60014;SDS011;45867;52.480;6.056;2023-08-20T10:08:58;6.63;;;1.73;;
60014;SDS011;45867;52.480;6.056;2023-08-20T10:11:26;8.00;;;2.25;;
60014;SDS011;45867;52.480;6.056;2023-08-20T10:13:53;7.32;;;1.73;;
60014;SDS011;45867;52.480;6.056;2023-08-20T10:16:20;4.43;;;1.65;;
60014;SDS011;45867;52.480;6.056;2023-08-20T10:18:47;6.60;;;1.83;;
60014;SDS011;45867;52.480;6.056;2023-08-20T10:21:14;5.25;;;1.40;;
60014;SDS011;45867;52.480;6.056;2023-08-20T10:23:41;5.18;;;1.40;;
60014;SDS011;45867;52.480;6.056;2023-08-20T10:26:10;7.10;;;1.67;;
60014;SDS011;45867;52.480;6.056;2023-08-20T10:28:37;3.95;;;1.10;;
60014;SDS011;45867;52.480;6.056;2023-08-20T10:31:08;4.88;;;1.30;;
60014;SDS011;45867;52.480;6.056;2023-08-20T10:33:48;5.68;;;1.60;;
60014;SDS011;45867;52.480;6.056;2023-08-20T10:36:15;7.63;;;1.50;;
60014;SDS011;45867;52.480;6.056;2023-08-20T10:38:46;8.68;;;1.50;;
60014;SDS011;45867;52.480;6.056;2023-08-20T10:41:13;4.90;;;1.60;;
60014;SDS011;45867;52.480;6.056;2023-08-20T10:43:46;6.32;;;1.30;;
60014;SDS011;45867;52.480;6.056;2023-08-20T10:46:20;5.97;;;1.70;;
60014;SDS011;45867;52.480;6.056;2023-08-20T10:48:48;5.47;;;1.48;;
60014;SDS011;45867;52.480;6.056;2023-08-20T10:56:47;5.45;;;1.42;;
60014;SDS011;45867;52.480;6.056;2023-08-20T10:59:23;5.00;;;1.50;;
60014;SDS011;45867;52.480;6.056;2023-08-20T11:01:50;5.78;;;1.73;;
60014;SDS011;45867;52.480;6.056;2023-08-20T11:04:18;8.27;;;1.77;;
60014;SDS011;45867;52.480;6.056;2023-08-20T11:06:46;9.10;;;2.00;;
60014;SDS011;45867;52.480;6.056;2023-08-20T11:09:15;6.13;;;1.87;;
60014;SDS011;45867;52.480;6.056;2023-08-20T11:11:42;7.38;;;1.90;;
60014;SDS011;45867;52.480;6.056;2023-08-20T11:14:14;9.20;;;1.60;;
60014;SDS011;45867;52.480;6.056;2023-08-20T11:16:42;5.20;;;1.50;;
60014;SDS011;45867;52.480;6.056;2023-08-20T11:19:09;4.95;;;1.70;;
60014;SDS011;45867;52.480;6.056;2023-08-20T11:21:39;8.77;;;1.80;;
60014;SDS011;45867;52.480;6.056;2023-08-20T11:24:07;10.27;;;1.75;;
60014;SDS011;45867;52.480;6.056;2023-08-20T11:26:35;7.32;;;1.65;;
60014;SDS011;45867;52.480;6.056;2023-08-20T11:29:08;7.57;;;1.90;;
60014;SDS011;45867;52.480;6.056;2023-08-20T11:31:36;5.60;;;1.90;;
60014;SDS011;45867;52.480;6.056;2023-08-20T11:34:03;6.80;;;1.75;;
60014;SDS011;45867;52.480;6.056;2023-08-20T11:36:30;8.63;;;1.75;;
60014;SDS011;45867;52.480;6.056;2023-08-20T11:38:57;7.57;;;2.00;;
60014;SDS011;45867;52.480;6.056;2023-08-20T11:41:24;7.07;;;1.75;;
60014;SDS011;45867;52.480;6.056;2023-08-20T11:43:51;8.25;;;1.80;;
60014;SDS011;45867;52.480;6.056;2023-08-20T11:46:19;7.72;;;1.60;;
60014;SDS011;45867;52.480;6.056;2023-08-20T11:49:02;9.38;;;2.05;;
60014;SDS011;45867;52.480;6.056;2023-08-20T11:54:12;6.65;;;1.40;;
60014;SDS011;45867;52.480;6.056;2023-08-20T11:56:43;4.68;;;1.50;;
60014;SDS011;45867;52.480;6.056;2023-08-20T11:59:11;6.85;;;1.42;;
60014;SDS011;45867;52.480;6.056;2023-08-20T12:01:39;4.70;;;1.33;;
60014;SDS011;45867;52.480;6.056;2023-08-20T12:04:09;5.70;;;1.40;;
60014;SDS011;45867;52.480;6.056;2023-08-20T12:06:36;6.15;;;1.38;;
60014;SDS011;45867;52.480;6.056;2023-08-20T12:09:19;6.95;;;1.48;;
60014;SDS011;45867;52.480;6.056;2023-08-20T12:11:50;6.40;;;1.27;;
60014;SDS011;45867;52.480;6.056;2023-08-20T12:14:18;5.72;;;1.60;;
60014;SDS011;45867;52.480;6.056;2023-08-20T12:16:45;4.88;;;1.30;;
60014;SDS011;45867;52.480;6.056;2023-08-20T12:19:12;3.90;;;1.10;;
60014;SDS011;45867;52.480;6.056;2023-08-20T12:21:42;3.92;;;1.35;;
60014;SDS011;45867;52.480;6.056;2023-08-20T12:24:09;3.67;;;1.20;;
60014;SDS011;45867;52.480;6.056;2023-08-20T12:26:37;6.32;;;1.40;;
60014;SDS011;45867;52.480;6.056;2023-08-20T12:29:04;5.20;;;1.48;;
60014;SDS011;45867;52.480;6.056;2023-08-20T12:31:33;5.32;;;1.50;;
60014;SDS011;45867;52.480;6.056;2023-08-20T12:34:00;6.60;;;1.75;;
60014;SDS011;45867;52.480;6.056;2023-08-20T12:36:27;6.28;;;1.48;;
60014;SDS011;45867;52.480;6.056;2023-08-20T12:38:54;6.53;;;1.63;;
60014;SDS011;45867;52.480;6.056;2023-08-20T12:41:20;4.75;;;1.63;;
60014;SDS011;45867;52.480;6.056;2023-08-20T12:43:47;5.55;;;1.63;;
60014;SDS011;45867;52.480;6.056;2023-08-20T12:46:13;6.18;;;1.60;;
60014;SDS011;45867;52.480;6.056;2023-08-20T12:48:40;6.22;;;1.98;;
60014;SDS011;45867;52.480;6.056;2023-08-20T12:51:06;5.68;;;1.50;;
60014;SDS011;45867;52.480;6.056;2023-08-20T12:53:33;3.65;;;1.48;;
60014;SDS011;45867;52.480;6.056;2023-08-20T12:55:59;6.50;;;1.65;;
60014;SDS011;45867;52.480;6.056;2023-08-20T12:58:26;8.48;;;1.73;;
60014;SDS011;45867;52.480;6.056;2023-08-20T13:00:52;8.88;;;1.85;;
60014;SDS011;45867;52.480;6.056;2023-08-20T13:03:19;5.82;;;1.65;;
60014;SDS011;45867;52.480;6.056;2023-08-20T13:05:45;6.57;;;1.92;;
60014;SDS011;45867;52.480;6.056;2023-08-20T13:08:12;5.65;;;1.45;;
60014;SDS011;45867;52.480;6.056;2023-08-20T13:10:41;5.45;;;1.58;;
60014;SDS011;45867;52.480;6.056;2023-08-20T13:13:19;4.90;;;1.45;;
60014;SDS011;45867;52.480;6.056;2023-08-20T13:15:48;7.78;;;1.90;;
60014;SDS011;45867;52.480;6.056;2023-08-20T13:18:15;6.53;;;1.40;;
60014;SDS011;45867;52.480;6.056;2023-08-20T13:20:42;9.68;;;1.75;;
60014;SDS011;45867;52.480;6.056;2023-08-20T13:23:09;8.27;;;1.88;;
60014;SDS011;45867;52.480;6.056;2023-08-20T13:25:36;6.00;;;1.77;;
60014;SDS011;45867;52.480;6.056;2023-08-20T13:28:02;5.63;;;1.60;;
60014;SDS011;45867;52.480;6.056;2023-08-20T13:30:29;5.28;;;1.70;;
60014;SDS011;45867;52.480;6.056;2023-08-20T13:32:55;7.75;;;2.00;;
60014;SDS011;45867;52.480;6.056;2023-08-20T13:35:22;8.98;;;1.38;;
60014;SDS011;45867;52.480;6.056;2023-08-20T13:37:48;6.57;;;1.70;;
60014;SDS011;45867;52.480;6.056;2023-08-20T13:40:15;6.55;;;1.75;;
60014;SDS011;45867;52.480;6.056;2023-08-20T13:42:41;7.63;;;1.80;;
60014;SDS011;45867;52.480;6.056;2023-08-20T13:45:08;6.70;;;1.70;;
60014;SDS011;45867;52.480;6.056;2023-08-20T13:47:34;6.78;;;1.50;;
60014;SDS011;45867;52.480;6.056;2023-08-20T13:50:01;7.40;;;2.13;;
60014;SDS011;45867;52.480;6.056;2023-08-20T13:52:27;7.85;;;1.63;;
60014;SDS011;45867;52.480;6.056;2023-08-20T13:54:54;5.22;;;1.33;;
60014;SDS011;45867;52.480;6.056;2023-08-20T13:58:12;5.60;;;1.25;;
60014;SDS011;45867;52.480;6.056;2023-08-20T14:05:09;4.93;;;1.67;;
60014;SDS011;45867;52.480;6.056;2023-08-20T14:15:06;4.60;;;1.50;;
60014;SDS011;45867;52.480;6.056;2023-08-20T14:18:18;5.93;;;1.52;;
60014;SDS011;45867;52.480;6.056;2023-08-20T14:32:05;7.25;;;1.70;;
60014;SDS011;45867;52.480;6.056;2023-08-20T14:38:31;5.90;;;1.42;;
60014;SDS011;45867;52.480;6.056;2023-08-20T14:41:43;6.93;;;1.50;;
60014;SDS011;45867;52.480;6.056;2023-08-20T14:52:05;5.80;;;1.25;;
60014;SDS011;45867;52.480;6.056;2023-08-20T15:11:09;6.78;;;1.50;;
60014;SDS011;45867;52.480;6.056;2023-08-20T15:14:34;5.30;;;1.63;;
60014;SDS011;45867;52.480;6.056;2023-08-20T15:17:33;5.57;;;1.42;;
60014;SDS011;45867;52.480;6.056;2023-08-20T15:20:42;4.80;;;1.48;;
60014;SDS011;45867;52.480;6.056;2023-08-20T15:27:31;4.95;;;1.77;;
60014;SDS011;45867;52.480;6.056;2023-08-20T15:34:22;8.27;;;1.52;;
60014;SDS011;45867;52.480;6.056;2023-08-20T15:48:26;8.27;;;1.77;;
60014;SDS011;45867;52.480;6.056;2023-08-20T15:57:29;4.80;;;1.35;;
60014;SDS011;45867;52.480;6.056;2023-08-20T16:10:43;7.50;;;1.95;;
60014;SDS011;45867;52.480;6.056;2023-08-20T16:13:56;7.70;;;1.67;;
60014;SDS011;45867;52.480;6.056;2023-08-20T16:26:45;12.27;;;2.03;;
60014;SDS011;45867;52.480;6.056;2023-08-20T16:29:51;10.25;;;2.08;;
60014;SDS011;45867;52.480;6.056;2023-08-20T16:33:00;8.80;;;2.55;;
60014;SDS011;45867;52.480;6.056;2023-08-20T16:39:24;9.38;;;2.90;;
60014;SDS011;45867;52.480;6.056;2023-08-20T16:42:23;7.75;;;2.88;;
60014;SDS011;45867;52.480;6.056;2023-08-20T16:51:53;10.60;;;2.05;;
60014;SDS011;45867;52.480;6.056;2023-08-20T16:54:19;9.07;;;1.98;;
60014;SDS011;45867;52.480;6.056;2023-08-20T16:56:46;8.02;;;2.10;;
60014;SDS011;45867;52.480;6.056;2023-08-20T16:59:12;7.70;;;1.98;;
60014;SDS011;45867;52.480;6.056;2023-08-20T17:01:39;11.45;;;2.28;;
60014;SDS011;45867;52.480;6.056;2023-08-20T17:04:05;9.10;;;2.35;;
60014;SDS011;45867;52.480;6.056;2023-08-20T17:06:32;7.82;;;2.00;;
60014;SDS011;45867;52.480;6.056;2023-08-20T17:08:58;10.25;;;1.90;;
60014;SDS011;45867;52.480;6.056;2023-08-20T17:11:24;12.02;;;2.28;;
60014;SDS011;45867;52.480;6.056;2023-08-20T17:13:54;10.05;;;1.95;;
60014;SDS011;45867;52.480;6.056;2023-08-20T17:16:21;6.43;;;1.88;;
60014;SDS011;45867;52.480;6.056;2023-08-20T17:18:48;7.20;;;1.77;;
60014;SDS011;45867;52.480;6.056;2023-08-20T17:21:17;6.05;;;1.75;;
60014;SDS011;45867;52.480;6.056;2023-08-20T17:23:57;8.17;;;2.30;;
60014;SDS011;45867;52.480;6.056;2023-08-20T17:26:27;5.88;;;1.50;;
60014;SDS011;45867;52.480;6.056;2023-08-20T17:28:54;8.85;;;1.63;;
60014;SDS011;45867;52.480;6.056;2023-08-20T17:31:20;6.13;;;1.75;;
60014;SDS011;45867;52.480;6.056;2023-08-20T17:33:47;8.32;;;1.80;;
60014;SDS011;45867;52.480;6.056;2023-08-20T17:36:14;7.40;;;1.70;;
60014;SDS011;45867;52.480;6.056;2023-08-20T17:38:40;11.40;;;1.88;;
60014;SDS011;45867;52.480;6.056;2023-08-20T17:41:06;8.88;;;1.67;;
60014;SDS011;45867;52.480;6.056;2023-08-20T17:43:33;8.13;;;2.30;;